KQWM/QWM METAR and TAF weather

Enter ICAO airport designator
Station Type Date Time Source
KQWM METAR 2016/03/17 16:55 UTC NOAA

KQWM 171655Z 32007KT 9000 HZ CLR 21/00 A3005 RMK SLP174 QNH1017


Station Type Date Time Source
KQWM Decoded METAR 2016/03/17 16:55 UTC NOAA

Station name not available
Mar 17, 2016 - 12:55 PM EDT / 2016.03.17 1655 UTC
Wind: from the NW (320 degrees) at 8 MPH (7 KT):0
Visibility: 5 mile(s):0
Sky conditions: clear
Weather: haze
Temperature: 69 F (21 C)
Dew Point: 32 F (0 C)
Relative Humidity: 24%
Pressure (altimeter): 30.05 in. Hg (1017 hPa)
ob: KQWM 171655Z 32007KT 9000 HZ CLR 21/00 A3005 RMK SLP174 QNH1017
cycle: 17

Station Type Date Time Source
KQWM TAF 2016/03/17 15:00 UTC NOAA

TAF KQWM 171500Z 1715/1821 28009KT 9000 HZ SKC QNH2995INS
TEMPO 1715/1717 27015G20KT
BECMG 1807/1808 29012G20KT 8000 HZ SKC QNH2998INS
BECMG 1814/1815 29009KT 9999 NSW SKC QNH3002INS TX26/1811Z TN13/1803Z


Example: see airport list